Time;durP1;ratioP1;P1;durP2;ratioP2;P2;SDS_P1;SDS_P2;PMS_P1;PMS_P2;Temp;Humidity;BMP_temperature;BMP_pressure;BME280_temperature;BME280_humidity;BME280_pressure;Samples;Min_cycle;Max_cycle;Signal;HPM_P1;HPM_P2
2022/05/25 00:02:06;;;;;;;6.90;2.28;;;;;;;;;;5012395;28;20536;-50
2022/05/25 00:04:34;;;;;;;6.97;2.28;;;;;;;;;;5012429;28;20046;-54
2022/05/25 00:07:02;;;;;;;9.77;2.30;;;;;;;;;;5012475;28;20038;-53
2022/05/25 00:09:30;;;;;;;4.07;2.03;;;;;;;;;;5012315;28;20045;-53
2022/05/25 00:11:58;;;;;;;3.70;1.83;;;;;;;;;;5027740;28;20049;-53
2022/05/25 00:14:25;;;;;;;5.32;1.83;;;;;;;;;;5012196;28;20053;-53
2022/05/25 00:16:52;;;;;;;2.63;1.55;;;;;;;;;;5012286;28;20048;-52
2022/05/25 00:22:05;;;;;;;6.75;1.88;;;;;;;;;;5011678;28;20125;-53
2022/05/25 00:24:33;;;;;;;3.25;1.85;;;;;;;;;;5012150;28;20041;-51
2022/05/25 00:27:00;;;;;;;3.83;2.05;;;;;;;;;;5011949;28;20053;-52
2022/05/25 00:29:27;;;;;;;3.22;1.70;;;;;;;;;;5006435;28;20397;-56
2022/05/25 00:31:55;;;;;;;4.75;2.10;;;;;;;;;;4992728;28;20045;-53
2022/05/25 00:34:22;;;;;;;2.85;1.90;;;;;;;;;;4992363;28;20038;-53
2022/05/25 00:36:49;;;;;;;3.30;2.03;;;;;;;;;;4992578;28;20056;-54
2022/05/25 00:39:17;;;;;;;3.15;1.60;;;;;;;;;;4992401;28;20046;-57
2022/05/25 00:41:44;;;;;;;4.13;2.42;;;;;;;;;;4992469;28;20534;-57
2022/05/25 00:44:11;;;;;;;2.80;1.92;;;;;;;;;;4992494;28;20512;-58
2022/05/25 00:46:40;;;;;;;5.25;2.05;;;;;;;;;;4992473;28;20121;-60
2022/05/25 00:49:33;;;;;;;3.28;1.80;;;;;;;;;;4992455;28;20042;-61
2022/05/25 00:52:10;;;;;;;3.15;1.75;;;;;;;;;;4989387;28;20502;-61
2022/05/25 00:54:43;;;;;;;4.65;2.42;;;;;;;;;;4992065;28;20034;-68
2022/05/25 00:57:29;;;;;;;4.80;2.80;;;;;;;;;;4992284;28;20097;-57
2022/05/25 01:00:12;;;;;;;4.22;2.30;;;;;;;;;;4992388;28;20034;-58
2022/05/25 01:02:46;;;;;;;5.90;2.95;;;;;;;;;;4992245;28;20053;-63
2022/05/25 01:05:18;;;;;;;3.25;1.98;;;;;;;;;;4992098;28;20066;-58
2022/05/25 01:08:13;;;;;;;3.40;1.90;;;;;;;;;;4991857;28;20046;-64
2022/05/25 01:11:08;;;;;;;3.75;1.88;;;;;;;;;;4992189;28;20054;-64
2022/05/25 01:13:58;;;;;;;5.68;2.33;;;;;;;;;;4991913;28;20045;-53
2022/05/25 01:16:50;;;;;;;3.90;2.10;;;;;;;;;;4986876;28;20039;-59
2022/05/25 01:19:35;;;;;;;6.47;3.72;;;;;;;;;;4991857;28;20046;-57
2022/05/25 01:22:27;;;;;;;4.82;2.50;;;;;;;;;;4991719;28;20397;-49
2022/05/25 01:25:19;;;;;;;3.30;2.10;;;;;;;;;;4990414;28;20525;-52
2022/05/25 01:27:49;;;;;;;3.38;1.92;;;;;;;;;;4991763;28;20042;-57
2022/05/25 01:30:19;;;;;;;3.25;1.77;;;;;;;;;;5003819;28;20041;-53
2022/05/25 01:32:56;;;;;;;3.72;1.77;;;;;;;;;;5011437;28;20085;-51
2022/05/25 01:36:10;;;;;;;3.58;2.05;;;;;;;;;;5015020;28;20034;-53
2022/05/25 01:38:49;;;;;;;3.47;2.00;;;;;;;;;;4993546;28;20038;-53
2022/05/25 01:41:50;;;;;;;3.63;2.15;;;;;;;;;;4993485;28;20046;-52
2022/05/25 01:44:22;;;;;;;8.70;4.72;;;;;;;;;;5010592;28;20077;-52
2022/05/25 01:46:54;;;;;;;7.28;3.35;;;;;;;;;;5015531;28;20401;-52
2022/05/25 01:49:32;;;;;;;5.72;3.60;;;;;;;;;;5014909;28;20087;-51
2022/05/25 01:52:10;;;;;;;4.03;2.45;;;;;;;;;;5015162;28;20057;-53
2022/05/25 01:54:46;;;;;;;3.45;2.42;;;;;;;;;;5014851;28;20046;-52
2022/05/25 01:57:15;;;;;;;4.40;2.63;;;;;;;;;;5015056;28;20069;-51
2022/05/25 01:59:43;;;;;;;4.32;2.63;;;;;;;;;;5015290;28;20038;-50
2022/05/25 02:05:00;;;;;;;4.45;2.60;;;;;;;;;;5014625;28;20048;-50
2022/05/25 02:07:48;;;;;;;5.25;2.25;;;;;;;;;;5014680;28;20049;-48
2022/05/25 02:10:43;;;;;;;4.68;2.50;;;;;;;;;;5014733;28;20407;-52
2022/05/25 02:13:23;;;;;;;;;;;;;;;;;;5015263;28;20108;-49
2022/05/25 02:16:01;;;;;;;3.60;2.10;;;;;;;;;;4988016;28;19972;-55
2022/05/25 02:18:41;;;;;;;5.60;2.30;;;;;;;;;;5003444;28;20034;-53
2022/05/25 02:21:26;;;;;;;3.50;2.10;;;;;;;;;;4994852;28;20038;-51
2022/05/25 02:24:09;;;;;;;3.00;2.00;;;;;;;;;;4995134;28;20034;-52
2022/05/25 02:26:48;;;;;;;3.63;2.17;;;;;;;;;;4994777;28;20513;-52
2022/05/25 02:29:21;;;;;;;5.43;2.40;;;;;;;;;;4994610;28;20050;-64
2022/05/25 02:31:55;;;;;;;4.07;2.05;;;;;;;;;;4994636;28;20471;-54
2022/05/25 02:34:24;;;;;;;4.28;2.47;;;;;;;;;;4994495;28;20367;-53
2022/05/25 02:36:54;;;;;;;19.88;8.18;;;;;;;;;;4994830;28;20046;-55
2022/05/25 02:39:22;;;;;;;10.35;3.08;;;;;;;;;;4994521;28;20054;-51
2022/05/25 02:41:52;;;;;;;6.13;2.22;;;;;;;;;;4994542;28;20497;-58
2022/05/25 02:44:19;;;;;;;2.95;2.00;;;;;;;;;;4994307;28;20498;-55
2022/05/25 02:46:47;;;;;;;6.60;3.35;;;;;;;;;;4993615;28;20048;-56
2022/05/25 02:49:16;;;;;;;3.97;2.42;;;;;;;;;;4994505;28;20082;-52
2022/05/25 02:51:44;;;;;;;5.18;2.08;;;;;;;;;;4994562;28;20093;-52
2022/05/25 02:54:11;;;;;;;4.63;2.20;;;;;;;;;;4994619;28;20049;-52
2022/05/25 02:56:38;;;;;;;6.13;2.03;;;;;;;;;;5009370;28;20089;-53
2022/05/25 02:59:06;;;;;;;3.40;1.92;;;;;;;;;;4993936;28;20046;-52
2022/05/25 03:01:33;;;;;;;3.53;2.28;;;;;;;;;;4994243;28;20077;-53
2022/05/25 03:04:00;;;;;;;3.67;2.15;;;;;;;;;;4994054;28;20042;-52
2022/05/25 03:06:28;;;;;;;5.63;2.10;;;;;;;;;;4994267;28;20038;-51
2022/05/25 03:08:55;;;;;;;5.47;2.42;;;;;;;;;;4992789;28;20050;-53
2022/05/25 03:11:24;;;;;;;96.07;43.22;;;;;;;;;;4993821;28;20046;-50
2022/05/25 03:13:51;;;;;;;26.15;10.40;;;;;;;;;;4994060;28;20549;-53
2022/05/25 03:16:19;;;;;;;8.30;4.43;;;;;;;;;;4993864;28;20383;-53
2022/05/25 03:18:47;;;;;;;21.92;7.95;;;;;;;;;;4993654;28;20038;-54
2022/05/25 03:21:14;;;;;;;15.52;7.68;;;;;;;;;;4994029;28;20053;-55
2022/05/25 03:23:42;;;;;;;8.75;3.88;;;;;;;;;;4993953;28;20047;-53
2022/05/25 03:26:09;;;;;;;5.78;2.92;;;;;;;;;;4992913;28;20100;-51
2022/05/25 03:28:37;;;;;;;10.77;4.75;;;;;;;;;;4993353;28;20058;-49
2022/05/25 03:31:05;;;;;;;4.85;2.75;;;;;;;;;;4993447;28;20405;-52
2022/05/25 03:33:33;;;;;;;12.60;4.25;;;;;;;;;;4993704;28;20125;-51
2022/05/25 03:36:00;;;;;;;7.15;2.92;;;;;;;;;;4993540;28;20042;-55
2022/05/25 03:38:28;;;;;;;4.75;2.63;;;;;;;;;;4993272;28;20042;-54
2022/05/25 03:40:57;;;;;;;4.93;2.50;;;;;;;;;;4993503;28;20497;-52
2022/05/25 03:43:30;;;;;;;5.70;2.33;;;;;;;;;;4993438;28;20093;-54
2022/05/25 03:45:58;;;;;;;3.50;2.07;;;;;;;;;;4993273;28;20058;-53
2022/05/25 03:48:26;;;;;;;5.40;3.05;;;;;;;;;;4993158;28;20302;-61
2022/05/25 03:50:53;;;;;;;3.13;2.15;;;;;;;;;;4993356;28;20458;-58
2022/05/25 03:53:20;;;;;;;6.05;2.42;;;;;;;;;;4992779;28;20042;-55
2022/05/25 03:55:48;;;;;;;4.45;2.33;;;;;;;;;;4993287;28;20151;-55
2022/05/25 03:58:15;;;;;;;106.93;49.67;;;;;;;;;;4991840;28;20446;-53
2022/05/25 04:00:42;;;;;;;20.13;8.70;;;;;;;;;;4993076;28;20042;-56
2022/05/25 04:03:14;;;;;;;4.68;2.75;;;;;;;;;;4993015;28;20150;-48
2022/05/25 04:05:42;;;;;;;5.00;2.88;;;;;;;;;;4993090;28;20042;-53
2022/05/25 04:08:10;;;;;;;4.80;2.50;;;;;;;;;;4992995;28;20039;-50
2022/05/25 04:10:38;;;;;;;5.30;2.60;;;;;;;;;;5007772;28;20137;-50
2022/05/25 04:13:06;;;;;;;5.15;2.50;;;;;;;;;;4992853;28;20210;-49
2022/05/25 04:15:34;;;;;;;4.38;2.25;;;;;;;;;;4992887;28;20054;-54
2022/05/25 04:18:03;;;;;;;8.20;2.42;;;;;;;;;;4992639;28;20425;-53
2022/05/25 04:20:32;;;;;;;5.97;2.70;;;;;;;;;;4992517;28;20065;-54
2022/05/25 04:23:00;;;;;;;5.57;2.55;;;;;;;;;;4992793;28;20140;-51
2022/05/25 04:25:27;;;;;;;6.13;2.33;;;;;;;;;;4992563;28;20042;-56
2022/05/25 04:27:56;;;;;;;50.22;26.60;;;;;;;;;;4992467;28;20042;-52
2022/05/25 04:30:26;;;;;;;11.10;4.72;;;;;;;;;;5001175;28;20517;-49
2022/05/25 04:32:55;;;;;;;4.95;2.50;;;;;;;;;;4992289;28;20379;-52
2022/05/25 04:35:23;;;;;;;4.63;2.45;;;;;;;;;;4992334;28;20065;-49
2022/05/25 04:37:54;;;;;;;5.80;2.58;;;;;;;;;;4992664;28;20030;-52
2022/05/25 04:40:26;;;;;;;3.50;1.98;;;;;;;;;;4992363;28;20054;-50
2022/05/25 04:42:55;;;;;;;6.47;2.40;;;;;;;;;;4992194;28;20405;-53
2022/05/25 04:45:28;;;;;;;4.45;2.10;;;;;;;;;;4992205;28;20081;-53
2022/05/25 04:47:57;;;;;;;7.05;2.70;;;;;;;;;;4992221;28;20113;-54
2022/05/25 04:50:27;;;;;;;6.20;2.45;;;;;;;;;;4992065;28;20034;-52
2022/05/25 04:52:56;;;;;;;18.17;8.07;;;;;;;;;;4992129;28;20077;-51
2022/05/25 04:58:28;;;;;;;6.07;2.75;;;;;;;;;;4992027;28;20508;-53
2022/05/25 05:00:55;;;;;;;4.25;2.35;;;;;;;;;;4992096;28;20126;-52
2022/05/25 05:03:24;;;;;;;4.03;1.92;;;;;;;;;;4992111;28;20174;-49
2022/05/25 05:05:53;;;;;;;5.32;2.10;;;;;;;;;;4992019;28;20052;-51
2022/05/25 05:08:21;;;;;;;4.18;2.00;;;;;;;;;;4991376;28;20042;-52
2022/05/25 05:10:49;;;;;;;3.25;2.17;;;;;;;;;;4992139;28;20046;-51
2022/05/25 05:13:16;;;;;;;6.82;2.17;;;;;;;;;;4992020;28;20030;-55
2022/05/25 05:15:49;;;;;;;3.40;1.85;;;;;;;;;;4991956;28;20461;-54
2022/05/25 05:18:18;;;;;;;5.43;2.30;;;;;;;;;;4991726;28;20486;-53
2022/05/25 05:21:12;;;;;;;3.90;2.03;;;;;;;;;;4990847;28;20441;-53
2022/05/25 05:23:40;;;;;;;5.13;2.65;;;;;;;;;;4991966;28;20050;-59
2022/05/25 05:26:09;;;;;;;4.60;1.90;;;;;;;;;;5006895;28;20042;-54
2022/05/25 05:28:40;;;;;;;6.10;2.22;;;;;;;;;;4991596;28;20100;-49
2022/05/25 05:31:08;;;;;;;4.20;1.80;;;;;;;;;;4991147;28;20046;-53
2022/05/25 05:33:36;;;;;;;21.27;14.25;;;;;;;;;;4991717;28;20057;-53
2022/05/25 05:36:09;;;;;;;15.48;6.90;;;;;;;;;;4991589;28;20509;-55
2022/05/25 05:38:59;;;;;;;4.68;2.20;;;;;;;;;;4991280;28;20054;-51
2022/05/25 05:41:31;;;;;;;6.25;2.28;;;;;;;;;;4987919;28;20144;-53
2022/05/25 05:43:59;;;;;;;4.13;1.98;;;;;;;;;;4991611;28;20422;-53
2022/05/25 05:46:28;;;;;;;4.13;2.08;;;;;;;;;;4991670;28;20038;-53
2022/05/25 05:48:55;;;;;;;4.35;2.53;;;;;;;;;;4991456;28;20121;-50
2022/05/25 05:51:23;;;;;;;5.45;1.80;;;;;;;;;;4990496;28;20510;-53
2022/05/25 05:53:52;;;;;;;4.43;1.80;;;;;;;;;;4991526;28;20122;-53
2022/05/25 05:56:19;;;;;;;3.55;1.77;;;;;;;;;;4991479;28;20043;-50
2022/05/25 05:58:51;;;;;;;5.60;2.08;;;;;;;;;;4991319;28;20050;-55
2022/05/25 06:01:18;;;;;;;6.75;2.08;;;;;;;;;;4990455;28;20109;-56
2022/05/25 06:03:46;;;;;;;7.03;2.03;;;;;;;;;;4991431;28;20211;-51
2022/05/25 06:06:13;;;;;;;11.00;2.38;;;;;;;;;;4991415;28;20117;-49
2022/05/25 06:08:42;;;;;;;5.07;2.08;;;;;;;;;;4991280;28;20042;-52
2022/05/25 06:11:12;;;;;;;3.72;1.73;;;;;;;;;;4991459;28;20039;-51
2022/05/25 06:13:40;;;;;;;6.25;2.17;;;;;;;;;;4991310;28;20064;-51
2022/05/25 06:21:39;;;;;;;3.85;1.75;;;;;;;;;;4993538;28;20073;-52
2022/05/25 06:24:07;;;;;;;4.30;1.98;;;;;;;;;;4994884;28;20406;-50
2022/05/25 06:26:35;;;;;;;5.80;2.03;;;;;;;;;;4994722;28;20088;-62
2022/05/25 06:29:03;;;;;;;5.10;2.13;;;;;;;;;;4994580;28;20050;-51
2022/05/25 06:31:32;;;;;;;4.45;2.42;;;;;;;;;;4993273;28;20061;-59
2022/05/25 06:33:59;;;;;;;3.97;2.38;;;;;;;;;;4994734;28;20100;-49
2022/05/25 06:36:29;;;;;;;4.35;2.47;;;;;;;;;;4994393;28;20482;-49
2022/05/25 06:38:57;;;;;;;4.00;2.08;;;;;;;;;;4994362;28;20046;-52
2022/05/25 06:41:25;;;;;;;3.80;2.05;;;;;;;;;;4994369;28;20074;-48
2022/05/25 06:43:52;;;;;;;4.43;1.92;;;;;;;;;;4994640;28;20445;-51
2022/05/25 06:46:20;;;;;;;5.13;2.17;;;;;;;;;;4992860;28;20061;-49
2022/05/25 06:48:51;;;;;;;5.20;2.38;;;;;;;;;;4994413;28;20043;-51
2022/05/25 06:51:22;;;;;;;4.45;2.22;;;;;;;;;;4994475;28;20075;-52
2022/05/25 06:53:50;;;;;;;4.10;2.10;;;;;;;;;;4994260;28;20118;-56
2022/05/25 06:56:20;;;;;;;6.60;2.63;;;;;;;;;;4994301;28;20117;-59
2022/05/25 06:58:48;;;;;;;5.72;2.08;;;;;;;;;;4994119;28;20121;-50
2022/05/25 07:01:15;;;;;;;3.92;2.10;;;;;;;;;;4994383;28;20413;-50
2022/05/25 07:03:43;;;;;;;6.93;2.40;;;;;;;;;;4994400;28;20058;-49
2022/05/25 07:06:12;;;;;;;4.93;1.90;;;;;;;;;;4994051;28;20042;-53
2022/05/25 07:08:41;;;;;;;5.57;2.20;;;;;;;;;;4993913;28;20043;-49
2022/05/25 07:11:11;;;;;;;5.40;2.22;;;;;;;;;;4993817;28;20068;-53
2022/05/25 07:13:39;;;;;;;3.83;2.30;;;;;;;;;;4993988;28;20042;-48
2022/05/25 07:16:09;;;;;;;5.13;2.13;;;;;;;;;;4993697;28;20046;-49
2022/05/25 07:18:38;;;;;;;15.93;2.90;;;;;;;;;;4993838;28;20038;-53
2022/05/25 07:21:14;;;;;;;6.07;2.15;;;;;;;;;;4992433;28;20093;-51
2022/05/25 07:23:43;;;;;;;4.10;2.45;;;;;;;;;;4993687;28;20092;-49
2022/05/25 07:26:11;;;;;;;10.85;2.10;;;;;;;;;;4993810;28;20038;-51
2022/05/25 07:28:40;;;;;;;3.72;1.95;;;;;;;;;;4993566;28;20045;-52
2022/05/25 07:31:17;;;;;;;6.38;2.20;;;;;;;;;;4974301;28;20054;-52
2022/05/25 07:33:49;;;;;;;3.17;1.95;;;;;;;;;;4974430;28;20514;-52
2022/05/25 07:36:17;;;;;;;3.78;1.85;;;;;;;;;;4973941;28;20074;-51
2022/05/25 07:38:49;;;;;;;5.50;2.13;;;;;;;;;;4974067;28;20093;-51
2022/05/25 07:41:17;;;;;;;9.55;2.65;;;;;;;;;;4973037;28;20071;-54
2022/05/25 07:43:47;;;;;;;3.80;1.90;;;;;;;;;;4972878;28;20039;-53
2022/05/25 07:46:15;;;;;;;4.60;2.10;;;;;;;;;;4974071;28;20078;-53
2022/05/25 07:48:42;;;;;;;6.15;2.08;;;;;;;;;;4973467;28;20498;-49
2022/05/25 07:51:10;;;;;;;3.70;1.75;;;;;;;;;;4986046;28;20034;-53
2022/05/25 07:53:55;;;;;;;4.93;2.20;;;;;;;;;;5008098;28;20046;-52
2022/05/25 07:56:35;;;;;;;3.47;1.98;;;;;;;;;;4993199;28;20098;-53
2022/05/25 07:59:05;;;;;;;4.47;2.08;;;;;;;;;;4992930;28;20053;-53
2022/05/25 08:07:16;;;;;;;4.80;1.95;;;;;;;;;;4992841;28;20045;-50
2022/05/25 08:09:43;;;;;;;2.13;1.40;;;;;;;;;;4993044;28;20486;-50
2022/05/25 08:12:12;;;;;;;5.70;1.75;;;;;;;;;;4992964;28;20089;-50
2022/05/25 08:14:39;;;;;;;5.28;1.67;;;;;;;;;;4992827;28;20089;-51
2022/05/25 08:17:07;;;;;;;2.78;1.50;;;;;;;;;;4992575;28;20081;-51
2022/05/25 08:19:36;;;;;;;4.78;1.83;;;;;;;;;;4992779;28;20506;-51
2022/05/25 08:22:03;;;;;;;4.30;1.60;;;;;;;;;;4992694;28;20153;-51
2022/05/25 08:24:32;;;;;;;3.08;1.50;;;;;;;;;;4992750;28;20053;-51
2022/05/25 08:27:05;;;;;;;3.40;1.67;;;;;;;;;;4992500;28;20034;-51
2022/05/25 08:29:33;;;;;;;3.72;1.42;;;;;;;;;;4992338;28;20089;-63
2022/05/25 08:32:00;;;;;;;6.30;1.48;;;;;;;;;;4992526;28;20077;-53
2022/05/25 08:34:28;;;;;;;3.30;1.88;;;;;;;;;;4992303;28;20045;-51
2022/05/25 08:36:57;;;;;;;3.40;1.60;;;;;;;;;;4992131;28;20198;-49
2022/05/25 08:39:25;;;;;;;3.88;1.50;;;;;;;;;;4992551;28;20046;-49
2022/05/25 08:41:55;;;;;;;3.50;1.60;;;;;;;;;;4991152;28;20502;-52
2022/05/25 08:44:23;;;;;;;4.38;1.55;;;;;;;;;;4991285;28;20045;-51
2022/05/25 08:46:55;;;;;;;3.22;1.38;;;;;;;;;;4992055;28;20125;-51
2022/05/25 08:49:25;;;;;;;4.40;1.52;;;;;;;;;;4992181;28;20403;-54
2022/05/25 08:51:55;;;;;;;3.92;1.17;;;;;;;;;;4992238;28;20039;-54
2022/05/25 08:54:26;;;;;;;2.47;1.30;;;;;;;;;;4992072;28;20039;-51
2022/05/25 08:56:57;;;;;;;3.22;1.38;;;;;;;;;;4992041;28;20524;-52
2022/05/25 08:59:28;;;;;;;3.20;1.20;;;;;;;;;;4992080;28;20504;-53
2022/05/25 09:02:09;;;;;;;7.05;1.60;;;;;;;;;;4991870;28;20038;-55
2022/05/25 09:04:46;;;;;;;3.58;1.30;;;;;;;;;;4991869;28;20125;-53
2022/05/25 09:07:14;;;;;;;3.28;1.10;;;;;;;;;;4992058;28;20096;-51
2022/05/25 09:09:45;;;;;;;3.85;1.20;;;;;;;;;;4991756;28;20125;-49
2022/05/25 09:12:37;;;;;;;1.88;0.98;;;;;;;;;;4991937;28;20034;-50
2022/05/25 09:15:13;;;;;;;1.40;0.88;;;;;;;;;;4991690;28;20122;-48
2022/05/25 09:17:46;;;;;;;1.48;0.82;;;;;;;;;;4991927;28;20053;-52
2022/05/25 09:20:23;;;;;;;1.70;0.85;;;;;;;;;;4991687;28;20085;-47
2022/05/25 09:22:52;;;;;;;1.08;0.70;;;;;;;;;;4990483;28;20157;-49
2022/05/25 09:25:21;;;;;;;1.65;0.80;;;;;;;;;;4991818;28;20038;-49
2022/05/25 09:28:03;;;;;;;3.90;0.73;;;;;;;;;;4991726;28;20042;-51
2022/05/25 09:30:35;;;;;;;0.90;0.70;;;;;;;;;;4991189;28;20550;-48
2022/05/25 09:33:13;;;;;;;4.32;1.08;;;;;;;;;;4991520;28;20097;-49
2022/05/25 09:35:55;;;;;;;3.15;0.90;;;;;;;;;;4991678;28;20514;-53
2022/05/25 09:38:43;;;;;;;2.67;1.00;;;;;;;;;;4991665;28;20041;-52
2022/05/25 09:41:31;;;;;;;3.72;1.60;;;;;;;;;;4991532;28;20030;-49
2022/05/25 09:44:02;;;;;;;3.17;0.98;;;;;;;;;;4991673;28;20165;-50
2022/05/25 09:46:37;;;;;;;5.65;1.13;;;;;;;;;;4991420;28;20498;-53
2022/05/25 09:49:07;;;;;;;1.77;0.98;;;;;;;;;;4991653;28;20049;-56
2022/05/25 09:51:44;;;;;;;6.32;1.50;;;;;;;;;;4991326;28;20420;-50
2022/05/25 09:54:25;;;;;;;6.30;1.52;;;;;;;;;;4991321;28;20089;-50
2022/05/25 09:56:58;;;;;;;1.25;0.80;;;;;;;;;;4995387;28;20081;-51
2022/05/25 09:59:30;;;;;;;;;;;;;;;;;;4994816;28;20035;-51
2022/05/25 10:01:58;;;;;;;1.35;0.85;;;;;;;;;;4995284;28;19976;-54
2022/05/25 10:04:51;;;;;;;1.55;0.80;;;;;;;;;;4995130;28;20073;-53
2022/05/25 10:07:21;;;;;;;2.38;0.80;;;;;;;;;;4995326;28;20228;-52
2022/05/25 10:09:51;;;;;;;2.22;0.80;;;;;;;;;;4994939;28;20038;-56
2022/05/25 10:12:25;;;;;;;3.03;0.63;;;;;;;;;;4994921;28;20042;-52
2022/05/25 10:14:56;;;;;;;2.25;0.90;;;;;;;;;;4995038;28;20042;-50
2022/05/25 10:17:33;;;;;;;2.80;0.85;;;;;;;;;;4994695;28;20053;-53
2022/05/25 10:20:05;;;;;;;1.10;0.70;;;;;;;;;;4994848;28;20162;-49
2022/05/25 10:22:46;;;;;;;1.42;0.50;;;;;;;;;;4995032;28;20125;-49
2022/05/25 10:25:27;;;;;;;3.30;1.25;;;;;;;;;;4995001;28;20042;-52
2022/05/25 10:27:57;;;;;;;1.73;0.60;;;;;;;;;;4994884;28;20177;-50
2022/05/25 10:36:47;;;;;;;1.45;0.60;;;;;;;;;;4994685;28;20383;-50
2022/05/25 10:39:32;;;;;;;2.67;1.10;;;;;;;;;;4995015;28;20088;-51
2022/05/25 10:42:05;;;;;;;2.72;0.93;;;;;;;;;;4994540;28;20046;-51
2022/05/25 10:44:45;;;;;;;1.27;0.63;;;;;;;;;;4994375;28;20048;-49
2022/05/25 10:47:36;;;;;;;2.55;0.90;;;;;;;;;;4994565;28;20042;-49
2022/05/25 10:50:20;;;;;;;2.08;0.98;;;;;;;;;;4994284;28;20046;-50
2022/05/25 10:53:15;;;;;;;1.48;0.60;;;;;;;;;;4994571;28;20093;-54
2022/05/25 10:56:20;;;;;;;2.38;0.73;;;;;;;;;;4994179;28;20085;-57
2022/05/25 10:59:13;;;;;;;2.30;0.85;;;;;;;;;;4994397;28;20133;-55
2022/05/25 11:02:07;;;;;;;2.28;0.80;;;;;;;;;;4994151;28;20096;-63
2022/05/25 11:04:53;;;;;;;1.83;0.70;;;;;;;;;;4993875;28;20042;-51
2022/05/25 11:07:33;;;;;;;3.05;1.08;;;;;;;;;;4993331;28;20046;-51
2022/05/25 11:10:08;;;;;;;2.40;0.73;;;;;;;;;;4994160;28;20109;-50
2022/05/25 11:12:44;;;;;;;2.15;0.90;;;;;;;;;;4993645;28;20549;-52
2022/05/25 11:15:37;;;;;;;1.27;0.60;;;;;;;;;;4993786;28;20132;-53
2022/05/25 11:18:23;;;;;;;1.25;0.50;;;;;;;;;;4993786;28;20076;-50
2022/05/25 11:20:56;;;;;;;1.50;0.65;;;;;;;;;;4993411;28;20055;-49
2022/05/25 11:23:36;;;;;;;1.83;0.60;;;;;;;;;;4993842;28;20092;-51
2022/05/25 11:26:41;;;;;;;2.53;0.95;;;;;;;;;;4993633;28;20050;-52
2022/05/25 11:29:30;;;;;;;1.30;0.70;;;;;;;;;;5008708;28;20042;-51
2022/05/25 11:32:10;;;;;;;2.17;0.60;;;;;;;;;;4993766;28;20054;-49
2022/05/25 11:34:46;;;;;;;1.23;0.52;;;;;;;;;;4993546;28;20153;-50
2022/05/25 11:37:32;;;;;;;2.28;0.50;;;;;;;;;;4993583;28;20042;-59
2022/05/25 11:40:19;;;;;;;2.17;0.47;;;;;;;;;;4993352;28;20077;-51
2022/05/25 11:43:04;;;;;;;1.20;0.47;;;;;;;;;;4993609;28;20050;-48
2022/05/25 11:45:55;;;;;;;1.42;0.73;;;;;;;;;;4992793;28;20046;-57
2022/05/25 11:49:02;;;;;;;1.85;0.80;;;;;;;;;;4993570;28;20050;-54
2022/05/25 11:51:43;;;;;;;1.50;0.80;;;;;;;;;;4993322;28;20038;-53
2022/05/25 11:54:37;;;;;;;2.25;0.80;;;;;;;;;;4993246;28;20049;-54
2022/05/25 11:57:09;;;;;;;3.83;0.70;;;;;;;;;;4992635;28;20038;-51
2022/05/25 11:59:36;;;;;;;4.15;0.98;;;;;;;;;;4992039;28;20050;-51
2022/05/25 12:02:41;;;;;;;1.83;0.43;;;;;;;;;;4992875;28;20078;-53
2022/05/25 12:05:25;;;;;;;4.15;0.95;;;;;;;;;;4993059;28;20050;-56
2022/05/25 12:08:14;;;;;;;145.88;62.65;;;;;;;;;;4992803;28;20038;-52
2022/05/25 12:10:49;;;;;;;2.95;1.40;;;;;;;;;;4993084;28;20085;-52
2022/05/25 12:13:21;;;;;;;1.40;0.82;;;;;;;;;;4992913;28;20046;-52
2022/05/25 12:15:54;;;;;;;1.70;0.90;;;;;;;;;;4993030;28;20050;-58
2022/05/25 12:18:40;;;;;;;2.47;0.80;;;;;;;;;;4991776;28;20497;-49
2022/05/25 12:21:23;;;;;;;2.47;1.00;;;;;;;;;;4973181;28;20067;-51
2022/05/25 12:24:01;;;;;;;2.53;0.80;;;;;;;;;;4973378;28;20043;-55
2022/05/25 12:26:34;;;;;;;3.17;1.08;;;;;;;;;;4973026;28;20039;-53
2022/05/25 12:29:20;;;;;;;1.90;0.93;;;;;;;;;;4973127;28;20090;-52
2022/05/25 12:31:51;;;;;;;2.22;0.90;;;;;;;;;;4973323;28;20050;-52
2022/05/25 12:34:28;;;;;;;1.98;0.85;;;;;;;;;;4973008;28;20138;-50
2022/05/25 12:36:58;;;;;;;3.45;0.98;;;;;;;;;;4973026;28;20035;-52
2022/05/25 12:39:45;;;;;;;2.38;1.00;;;;;;;;;;4972896;28;20074;-50
2022/05/25 12:42:23;;;;;;;1.80;1.00;;;;;;;;;;4975596;28;20093;-50
2022/05/25 12:50:48;;;;;;;;;;;;;;;;;;4973160;28;20047;-52
2022/05/25 12:53:38;;;;;;;4.93;3.05;;;;;;;;;;4972806;28;20397;-52
2022/05/25 12:56:15;;;;;;;7.30;5.13;;;;;;;;;;4972771;28;20039;-53
2022/05/25 12:58:46;;;;;;;9.13;2.30;;;;;;;;;;4972887;28;20104;-53
2022/05/25 13:01:14;;;;;;;4.38;1.17;;;;;;;;;;4972737;28;20078;-54
2022/05/25 13:03:44;;;;;;;1.85;0.80;;;;;;;;;;4972823;28;20130;-53
2022/05/25 13:06:21;;;;;;;4.50;1.30;;;;;;;;;;4972594;28;20039;-53
2022/05/25 13:09:01;;;;;;;2.38;1.00;;;;;;;;;;4972734;28;20138;-56
2022/05/25 13:11:37;;;;;;;2.22;0.90;;;;;;;;;;4972624;28;20506;-56
2022/05/25 13:14:33;;;;;;;2.47;1.00;;;;;;;;;;4972327;28;20054;-54
2022/05/25 13:17:03;;;;;;;4.85;1.20;;;;;;;;;;4972251;28;20042;-56
2022/05/25 13:19:46;;;;;;;7.28;3.20;;;;;;;;;;4979521;28;20081;-54
2022/05/25 13:22:17;;;;;;;4.13;1.30;;;;;;;;;;4992107;28;20666;-56
2022/05/25 13:24:51;;;;;;;1.70;0.93;;;;;;;;;;4991925;28;20043;-54
2022/05/25 13:27:38;;;;;;;2.33;1.10;;;;;;;;;;4991802;28;20038;-56
2022/05/25 13:30:28;;;;;;;2.58;0.95;;;;;;;;;;4983903;28;20035;-55
2022/05/25 13:33:02;;;;;;;3.00;1.02;;;;;;;;;;4978699;28;20055;-59
2022/05/25 13:35:49;;;;;;;7.85;1.25;;;;;;;;;;4984816;28;20437;-61
2022/05/25 13:38:25;;;;;;;16.10;8.77;;;;;;;;;;4998159;28;20070;-59
2022/05/25 13:41:01;;;;;;;6.18;1.77;;;;;;;;;;4997919;28;20042;-60
2022/05/25 13:43:59;;;;;;;2.33;0.95;;;;;;;;;;4998187;28;20030;-60
2022/05/25 13:46:32;;;;;;;2.63;1.10;;;;;;;;;;4998182;28;20046;-60
2022/05/25 13:49:04;;;;;;;1.85;0.90;;;;;;;;;;4997774;28;20371;-58
2022/05/25 13:51:32;;;;;;;1.85;0.82;;;;;;;;;;4998028;28;20532;-53
2022/05/25 13:54:00;;;;;;;1.98;1.02;;;;;;;;;;4998019;28;20057;-56
2022/05/25 13:56:36;;;;;;;2.03;0.90;;;;;;;;;;4998057;28;20046;-52
2022/05/25 13:59:06;;;;;;;3.00;1.10;;;;;;;;;;4997748;28;20445;-51
2022/05/25 14:01:33;;;;;;;4.20;1.15;;;;;;;;;;4997936;28;20141;-55
2022/05/25 14:04:07;;;;;;;4.43;1.10;;;;;;;;;;4997947;28;20089;-52
2022/05/25 14:06:42;;;;;;;58.58;39.22;;;;;;;;;;4997613;28;20042;-52
2022/05/25 14:11:57;;;;;;;2.40;0.98;;;;;;;;;;4997634;28;20101;-52
2022/05/25 14:14:34;;;;;;;2.22;1.02;;;;;;;;;;4997682;28;20061;-48
2022/05/25 14:17:07;;;;;;;3.08;1.08;;;;;;;;;;4997820;28;20043;-51
2022/05/25 14:19:47;;;;;;;4.78;1.20;;;;;;;;;;4997527;28;20109;-49
2022/05/25 14:22:17;;;;;;;4.03;1.13;;;;;;;;;;4998096;28;20121;-50
2022/05/25 14:24:50;;;;;;;3.63;1.20;;;;;;;;;;4998009;28;20406;-49
2022/05/25 14:27:33;;;;;;;16.25;7.60;;;;;;;;;;4997713;28;20049;-53
2022/05/25 14:30:14;;;;;;;1.77;1.08;;;;;;;;;;4997178;28;20053;-61
2022/05/25 14:32:56;;;;;;;2.55;1.02;;;;;;;;;;4997399;28;20043;-51
2022/05/25 14:35:25;;;;;;;4.70;1.40;;;;;;;;;;4997556;28;20045;-49
2022/05/25 14:37:52;;;;;;;2.20;1.00;;;;;;;;;;4997612;28;20061;-53
2022/05/25 14:40:52;;;;;;;3.25;1.20;;;;;;;;;;4996819;28;20398;-60
2022/05/25 14:43:42;;;;;;;4.10;1.10;;;;;;;;;;4993056;28;20070;-54
2022/05/25 14:46:31;;;;;;;1.67;1.10;;;;;;;;;;4994354;28;20080;-56
2022/05/25 14:49:02;;;;;;;3.45;1.38;;;;;;;;;;4994442;28;20046;-53
2022/05/25 14:51:43;;;;;;;2.85;1.40;;;;;;;;;;4994240;28;20066;-60
2022/05/25 14:54:19;;;;;;;3.83;1.27;;;;;;;;;;4994254;28;20121;-60
2022/05/25 14:56:49;;;;;;;2.95;0.90;;;;;;;;;;4994439;28;20506;-61
2022/05/25 14:59:29;;;;;;;4.38;0.90;;;;;;;;;;4993252;28;20046;-61
2022/05/25 15:01:58;;;;;;;2.33;1.10;;;;;;;;;;4994012;28;20039;-62
2022/05/25 15:04:36;;;;;;;2.05;1.00;;;;;;;;;;4994014;28;20464;-53
2022/05/25 15:07:04;;;;;;;1.73;0.82;;;;;;;;;;4993938;28;20038;-52
2022/05/25 15:09:35;;;;;;;2.20;1.02;;;;;;;;;;4994070;28;20394;-51
2022/05/25 15:12:17;;;;;;;2.08;1.15;;;;;;;;;;4994008;28;20105;-62
2022/05/25 15:18:29;;;;;;;4.22;1.15;;;;;;;;;;4994034;28;20068;-55
2022/05/25 15:21:13;;;;;;;5.13;2.25;;;;;;;;;;4993385;28;20109;-55
2022/05/25 15:24:06;;;;;;;2.05;1.38;;;;;;;;;;4993807;28;20462;-52
2022/05/25 15:26:34;;;;;;;;;;;;;;;;;;4994039;28;20038;-56
2022/05/25 15:29:31;;;;;;;2.45;1.13;;;;;;;;;;4993652;28;19922;-53
2022/05/25 15:32:03;;;;;;;3.17;1.60;;;;;;;;;;4993465;28;20054;-53
2022/05/25 15:34:31;;;;;;;2.80;1.30;;;;;;;;;;4993591;28;20050;-55
2022/05/25 15:37:21;;;;;;;4.93;1.30;;;;;;;;;;4993587;28;20130;-51
2022/05/25 15:39:50;;;;;;;2.53;1.27;;;;;;;;;;4993622;28;20117;-58
2022/05/25 15:42:37;;;;;;;3.20;1.35;;;;;;;;;;4993210;28;20085;-52
2022/05/25 15:45:05;;;;;;;3.80;1.27;;;;;;;;;;4993104;28;20129;-53
2022/05/25 15:47:33;;;;;;;2.90;1.38;;;;;;;;;;4993381;28;20035;-52
2022/05/25 15:50:01;;;;;;;4.35;1.30;;;;;;;;;;4993216;28;20049;-56
2022/05/25 15:52:28;;;;;;;1.77;0.95;;;;;;;;;;4992994;28;20042;-53
2022/05/25 15:54:56;;;;;;;2.00;1.00;;;;;;;;;;4993131;28;20418;-53
2022/05/25 15:57:23;;;;;;;4.45;1.15;;;;;;;;;;4993182;28;20054;-50
2022/05/25 15:59:52;;;;;;;2.13;0.88;;;;;;;;;;4993281;28;20113;-50
2022/05/25 16:02:20;;;;;;;2.80;1.10;;;;;;;;;;4993006;28;20058;-49
2022/05/25 16:04:47;;;;;;;41.42;24.65;;;;;;;;;;4993114;28;20051;-50